createdAt,value
2022-10-30T00:00:51.730Z,95504.84
2022-10-30T00:01:48.604Z,95454.38
2022-10-30T00:02:47.549Z,95504.22
2022-10-30T00:03:44.336Z,95308.69
2022-10-30T00:04:41.030Z,95421.88
2022-10-30T00:05:40.843Z,95492.75
2022-10-30T00:06:37.555Z,95483.84
2022-10-30T00:07:34.906Z,95416.47
2022-10-30T00:08:31.750Z,95475.31
2022-10-30T00:09:28.479Z,95445.03
2022-10-30T00:10:25.502Z,95297.31
2022-10-30T00:11:22.701Z,95392.00
2022-10-30T00:12:19.390Z,95483.09
2022-10-30T00:13:16.381Z,95488.03
2022-10-30T00:14:13.996Z,95488.19
2022-10-30T00:15:11.500Z,95441.84
2022-10-30T00:16:09.669Z,95397.97
2022-10-30T00:17:06.423Z,95496.03
2022-10-30T00:18:03.544Z,95501.53
2022-10-30T00:19:00.482Z,95451.31
2022-10-30T00:19:57.174Z,95505.09
2022-10-30T00:20:53.875Z,95502.47
2022-10-30T00:21:50.582Z,95468.84
2022-10-30T00:22:47.374Z,95368.88
2022-10-30T00:23:52.767Z,95477.44
2022-10-30T00:24:49.689Z,95500.16
2022-10-30T00:25:46.433Z,95480.06
2022-10-30T00:26:43.715Z,95494.88
2022-10-30T00:27:40.390Z,95508.66
2022-10-30T00:28:37.129Z,95490.41
2022-10-30T00:29:33.851Z,95488.34
2022-10-30T00:30:30.579Z,95491.94
2022-10-30T00:31:27.513Z,95470.50
2022-10-30T00:32:24.241Z,95437.50
2022-10-30T00:33:20.966Z,95467.34
2022-10-30T00:34:17.642Z,95393.19
2022-10-30T00:35:14.468Z,95505.69
2022-10-30T00:36:11.154Z,95496.13
2022-10-30T00:37:07.831Z,95484.13
2022-10-30T00:38:04.533Z,95453.34
2022-10-30T00:39:01.384Z,95487.13
2022-10-30T00:39:58.099Z,95481.94
2022-10-30T00:40:54.825Z,95509.66
2022-10-30T00:41:52.225Z,95489.84
2022-10-30T00:42:48.970Z,95278.13
2022-10-30T00:43:46.984Z,95464.53
2022-10-30T00:44:53.054Z,95494.56
2022-10-30T00:45:49.780Z,95428.53
2022-10-30T00:46:46.809Z,95497.38
2022-10-30T00:47:51.899Z,95491.97
2022-10-30T00:48:56.705Z,95435.25
2022-10-30T00:49:57.901Z,95494.41
2022-10-30T00:50:58.181Z,95508.53
2022-10-30T00:51:55.471Z,95485.06
2022-10-30T00:53:01.041Z,95311.13
2022-10-30T00:54:02.731Z,95476.59
2022-10-30T00:55:05.929Z,95476.34
2022-10-30T00:56:08.825Z,95417.97
2022-10-30T00:57:09.600Z,95436.31
2022-10-30T00:58:11.021Z,95473.09
2022-10-30T00:59:10.926Z,95485.28
2022-10-30T01:00:09.349Z,95509.78
2022-10-30T01:01:14.286Z,95465.34
2022-10-30T01:02:11.476Z,95494.50
2022-10-30T01:03:08.720Z,95352.69
2022-10-30T01:04:07.366Z,95462.38
2022-10-30T01:05:04.678Z,95425.94
2022-10-30T01:06:07.917Z,95295.88
2022-10-30T01:07:14.830Z,95466.03
2022-10-30T01:08:11.817Z,95475.66
2022-10-30T01:09:09.299Z,95378.50
2022-10-30T01:10:07.119Z,95395.59
2022-10-30T01:11:05.929Z,95471.38
2022-10-30T01:12:02.802Z,95475.94
2022-10-30T01:13:01.519Z,95463.28
2022-10-30T01:14:06.023Z,95470.84
2022-10-30T01:15:03.037Z,95448.81
2022-10-30T01:16:18.107Z,95441.94
2022-10-30T01:18:01.951Z,95442.78
2022-10-30T01:19:01.580Z,95449.72
2022-10-30T01:20:14.465Z,95436.47
2022-10-30T01:21:31.988Z,95446.75
2022-10-30T01:22:40.648Z,95446.63
2022-10-30T01:23:37.321Z,95445.00
2022-10-30T01:24:49.541Z,95444.31
2022-10-30T01:26:12.741Z,95444.53
2022-10-30T01:27:26.884Z,95440.47
2022-10-30T01:28:42.053Z,95443.22
2022-10-30T01:30:01.417Z,95444.84
2022-10-30T01:31:19.316Z,95445.84
2022-10-30T01:32:47.226Z,95445.72
2022-10-30T01:34:17.125Z,95340.88
2022-10-30T01:35:38.754Z,95440.31
2022-10-30T01:36:52.240Z,95451.56
2022-10-30T01:37:57.518Z,95439.38
2022-10-30T01:38:59.972Z,95447.41
2022-10-30T01:39:56.644Z,95455.13
2022-10-30T01:40:53.370Z,95451.00
2022-10-30T01:41:50.271Z,95452.47
2022-10-30T01:42:51.885Z,95444.00
2022-10-30T01:43:55.037Z,95441.13
2022-10-30T01:44:51.862Z,95456.22
2022-10-30T01:46:11.007Z,95436.47
2022-10-30T01:47:49.895Z,95439.03
2022-10-30T01:49:14.166Z,95434.44
2022-10-30T01:50:25.677Z,95435.25
2022-10-30T01:51:34.442Z,95433.69
2022-10-30T01:53:08.451Z,95451.72
2022-10-30T01:54:23.905Z,95442.56
2022-10-30T01:55:26.535Z,95438.72
2022-10-30T01:56:45.037Z,95440.69
2022-10-30T01:57:56.680Z,95425.81
2022-10-30T01:59:35.505Z,95434.91
2022-10-30T02:00:32.337Z,95259.63
2022-10-30T02:01:33.356Z,95439.25
2022-10-30T02:02:31.483Z,95444.75
2022-10-30T02:03:28.642Z,95453.56
2022-10-30T02:04:25.653Z,95436.16
2022-10-30T02:05:35.358Z,95449.03
2022-10-30T02:06:32.149Z,95377.78
2022-10-30T02:07:28.931Z,95451.84
2022-10-30T02:08:27.289Z,95452.66
2022-10-30T02:09:24.780Z,95393.81
2022-10-30T02:10:21.695Z,95248.03
2022-10-30T02:11:18.471Z,95417.13
2022-10-30T02:12:15.789Z,95393.22
2022-10-30T02:13:12.464Z,95411.94
2022-10-30T02:14:10.564Z,95437.63
2022-10-30T02:15:07.966Z,95444.09
2022-10-30T02:16:05.292Z,95440.50
2022-10-30T02:17:05.878Z,95454.88
2022-10-30T02:18:02.897Z,95318.19
2022-10-30T02:18:59.631Z,95357.25
2022-10-30T02:19:56.332Z,95424.69
2022-10-30T02:20:53.958Z,95253.69
2022-10-30T02:21:51.549Z,95439.19
2022-10-30T02:22:52.959Z,95366.94
2022-10-30T02:23:53.065Z,95341.09
2022-10-30T02:24:49.761Z,95451.97
2022-10-30T02:25:46.797Z,95351.53
2022-10-30T02:26:43.552Z,95382.38
2022-10-30T02:27:40.377Z,95444.44
2022-10-30T02:28:37.076Z,95438.69
2022-10-30T02:29:33.820Z,95233.22
2022-10-30T02:30:30.685Z,95438.19
2022-10-30T02:31:27.379Z,95410.53
2022-10-30T02:32:24.119Z,95369.56
2022-10-30T02:33:20.805Z,95279.47
2022-10-30T02:34:18.226Z,95413.88
2022-10-30T02:35:15.000Z,95434.00
2022-10-30T02:36:11.712Z,95415.50
2022-10-30T02:37:09.067Z,95383.25
2022-10-30T02:38:05.759Z,95438.03
2022-10-30T02:39:02.481Z,95426.81
2022-10-30T02:39:59.789Z,95426.97
2022-10-30T02:40:58.549Z,95442.72
2022-10-30T02:41:55.252Z,95438.94
2022-10-30T02:42:53.437Z,95413.41
2022-10-30T02:43:53.385Z,95391.88
2022-10-30T02:44:50.129Z,95301.91
2022-10-30T02:45:51.339Z,95461.16
2022-10-30T02:46:48.070Z,95368.44
2022-10-30T02:47:44.756Z,95415.75
2022-10-30T02:48:41.436Z,95443.91
2022-10-30T02:49:38.169Z,95434.88
2022-10-30T02:50:34.928Z,95239.47
2022-10-30T02:51:32.688Z,95432.75
2022-10-30T02:52:29.357Z,95418.53
2022-10-30T02:53:26.062Z,95398.88
2022-10-30T02:54:22.878Z,95423.41
2022-10-30T02:55:20.045Z,95448.94
2022-10-30T02:56:17.121Z,95441.50
2022-10-30T02:57:13.818Z,95290.81
2022-10-30T02:58:10.529Z,95363.31
2022-10-30T02:59:07.372Z,95247.34
2022-10-30T03:00:04.994Z,95437.19
2022-10-30T03:01:09.761Z,95425.81
2022-10-30T03:02:06.620Z,95438.63
2022-10-30T03:03:03.374Z,95311.88
2022-10-30T03:04:00.099Z,95452.72
2022-10-30T03:04:56.823Z,95439.19
2022-10-30T03:05:53.517Z,95444.28
2022-10-30T03:06:50.240Z,95409.97
2022-10-30T03:07:48.733Z,95442.78
2022-10-30T03:08:45.503Z,95423.63
2022-10-30T03:09:42.252Z,95278.31
2022-10-30T03:10:38.934Z,95343.44
2022-10-30T03:11:35.979Z,95444.69
2022-10-30T03:12:32.943Z,95424.97
2022-10-30T03:13:33.016Z,95435.97
2022-10-30T03:14:29.717Z,95386.59
2022-10-30T03:15:26.405Z,95394.75
2022-10-30T03:16:25.306Z,95453.69
2022-10-30T03:17:22.098Z,95414.53
2022-10-30T03:18:18.813Z,95416.41
2022-10-30T03:19:15.625Z,95401.34
2022-10-30T03:20:12.892Z,95444.00
2022-10-30T03:21:13.683Z,95445.63
2022-10-30T03:22:10.437Z,95465.06
2022-10-30T03:23:07.143Z,95452.22
2022-10-30T03:24:04.052Z,95433.28
2022-10-30T03:25:00.764Z,95469.41
2022-10-30T03:25:59.148Z,95405.69
2022-10-30T03:26:55.852Z,95197.06
2022-10-30T03:27:52.847Z,95453.97
2022-10-30T03:28:49.564Z,95446.53
2022-10-30T03:29:46.240Z,95457.53
2022-10-30T03:30:42.923Z,95428.44
2022-10-30T03:31:39.674Z,95421.97
2022-10-30T03:32:36.485Z,95413.63
2022-10-30T03:33:34.797Z,95415.00
2022-10-30T03:34:31.477Z,95454.75
2022-10-30T03:35:28.133Z,95457.81
2022-10-30T03:36:26.460Z,95461.94
2022-10-30T03:37:23.128Z,95385.69
2022-10-30T03:38:19.819Z,95457.06
2022-10-30T03:39:16.541Z,95502.63
2022-10-30T03:40:13.259Z,95468.06
2022-10-30T03:41:10.078Z,95257.75
2022-10-30T03:42:06.805Z,95392.75
2022-10-30T03:43:04.098Z,95451.59
2022-10-30T03:44:00.922Z,95451.47
2022-10-30T03:44:57.604Z,95411.91
2022-10-30T03:45:56.634Z,95377.16
2022-10-30T03:46:53.320Z,95221.81
2022-10-30T03:47:50.019Z,95437.78
2022-10-30T03:48:50.112Z,95397.56
2022-10-30T03:49:46.804Z,95452.19
2022-10-30T03:50:44.285Z,95241.34
2022-10-30T03:51:41.122Z,95299.13
2022-10-30T03:52:37.848Z,95444.13
2022-10-30T03:53:52.779Z,95436.16
2022-10-30T03:54:49.448Z,95462.81
2022-10-30T03:55:46.169Z,95459.06
2022-10-30T03:56:44.682Z,95384.59
2022-10-30T03:57:41.357Z,95429.41
2022-10-30T03:58:38.044Z,95359.91
2022-10-30T03:59:34.803Z,95399.13
2022-10-30T04:00:32.858Z,95427.72
2022-10-30T04:01:29.660Z,95450.31
2022-10-30T04:02:26.413Z,95362.44
2022-10-30T04:03:23.182Z,95442.84
2022-10-30T04:04:19.880Z,95431.22
2022-10-30T04:05:19.552Z,95388.00
2022-10-30T04:06:16.259Z,95408.97
2022-10-30T04:07:12.944Z,95230.31
2022-10-30T04:08:14.784Z,95377.72
2022-10-30T04:09:11.502Z,95445.00
2022-10-30T04:10:08.686Z,95384.00
2022-10-30T04:11:05.718Z,95444.59
2022-10-30T04:12:02.541Z,95375.72
2022-10-30T04:13:04.526Z,95269.34
2022-10-30T04:14:01.237Z,95399.16
2022-10-30T04:14:57.966Z,95442.63
2022-10-30T04:15:57.908Z,95390.06
2022-10-30T04:16:55.145Z,95429.44
2022-10-30T04:17:51.852Z,95435.16
2022-10-30T04:18:48.548Z,95432.59
2022-10-30T04:19:45.270Z,95270.69
2022-10-30T04:20:43.107Z,95443.28
2022-10-30T04:21:39.944Z,95449.13
2022-10-30T04:22:36.745Z,95425.38
2022-10-30T04:23:33.441Z,95430.97
2022-10-30T04:24:30.152Z,95426.03
2022-10-30T04:25:29.160Z,95429.22
2022-10-30T04:26:25.883Z,95441.97
2022-10-30T04:27:22.671Z,95440.38
2022-10-30T04:28:21.280Z,95302.72
2022-10-30T04:29:17.993Z,95446.91
2022-10-30T04:30:14.796Z,95434.38
2022-10-30T04:31:11.540Z,95423.75
2022-10-30T04:32:09.149Z,95304.59
2022-10-30T04:33:10.620Z,95431.16
2022-10-30T04:34:07.361Z,95445.63
2022-10-30T04:35:04.433Z,95436.03
2022-10-30T04:36:01.129Z,95420.03
2022-10-30T04:36:57.789Z,95403.00
2022-10-30T04:37:55.169Z,95350.19
2022-10-30T04:38:51.821Z,95409.06
2022-10-30T04:39:49.433Z,95434.22
2022-10-30T04:40:46.228Z,95345.38
2022-10-30T04:41:42.899Z,95385.50
2022-10-30T04:42:39.579Z,95350.06
2022-10-30T04:43:36.263Z,95440.66
2022-10-30T04:44:33.034Z,95410.88
2022-10-30T04:45:29.778Z,95453.69
2022-10-30T04:46:26.470Z,95441.75
2022-10-30T04:47:23.226Z,95204.41
2022-10-30T04:48:19.980Z,95422.75
2022-10-30T04:49:16.681Z,95424.34
2022-10-30T04:50:14.542Z,95445.66
2022-10-30T04:51:11.821Z,95437.78
2022-10-30T04:52:08.524Z,95291.94
2022-10-30T04:53:08.845Z,95457.66
2022-10-30T04:54:05.766Z,95410.25
2022-10-30T04:55:03.341Z,95401.47
2022-10-30T04:56:00.051Z,95373.66
2022-10-30T04:56:56.748Z,95445.16
2022-10-30T04:57:57.773Z,95434.56
2022-10-30T04:58:54.633Z,95369.66
2022-10-30T04:59:51.336Z,95426.03
2022-10-30T05:00:48.059Z,95399.69
2022-10-30T05:01:44.876Z,95430.44
2022-10-30T05:02:41.775Z,95458.34
2022-10-30T05:03:38.572Z,95410.56
2022-10-30T05:04:35.264Z,95393.94
2022-10-30T05:05:32.506Z,95393.78
2022-10-30T05:06:31.064Z,95433.97
2022-10-30T05:07:27.835Z,95411.94
2022-10-30T05:08:24.789Z,95318.41
2022-10-30T05:09:21.525Z,95331.53
2022-10-30T05:10:18.479Z,95284.44
2022-10-30T05:11:15.954Z,95265.84
2022-10-30T05:12:12.680Z,95281.88
2022-10-30T05:13:11.433Z,95386.00
2022-10-30T05:14:08.163Z,95416.84
2022-10-30T05:15:05.315Z,95459.13
2022-10-30T05:16:02.024Z,95459.63
2022-10-30T05:16:59.192Z,95454.31
2022-10-30T05:17:56.289Z,95459.38
2022-10-30T05:18:53.320Z,95289.72
2022-10-30T05:19:50.045Z,95465.16
2022-10-30T05:20:47.473Z,95423.84
2022-10-30T05:21:44.167Z,95444.81
2022-10-30T05:22:40.841Z,95461.31
2022-10-30T05:23:37.517Z,95456.69
2022-10-30T05:24:34.234Z,95409.50
2022-10-30T05:25:31.685Z,95435.78
2022-10-30T05:26:28.423Z,95465.25
2022-10-30T05:27:25.213Z,95236.59
2022-10-30T05:28:21.893Z,95424.84
2022-10-30T05:29:19.610Z,95475.81
2022-10-30T05:30:16.876Z,95404.59
2022-10-30T05:31:13.563Z,95468.88
2022-10-30T05:32:10.286Z,95465.25
2022-10-30T05:33:10.483Z,95443.69
2022-10-30T05:34:07.551Z,95436.59
2022-10-30T05:35:04.785Z,95435.06
2022-10-30T05:36:01.920Z,95325.34
2022-10-30T05:36:58.653Z,95449.94
2022-10-30T05:37:55.357Z,95469.16
2022-10-30T05:38:52.154Z,95440.00
2022-10-30T05:39:48.868Z,95445.03
2022-10-30T05:40:47.055Z,95382.78
2022-10-30T05:41:43.767Z,95472.06
2022-10-30T05:42:48.358Z,95423.44
2022-10-30T05:43:45.082Z,95464.13
2022-10-30T05:44:59.707Z,95451.47
2022-10-30T05:45:56.840Z,95438.69
2022-10-30T05:46:53.520Z,95405.53
2022-10-30T05:48:02.274Z,95448.69
2022-10-30T05:49:00.635Z,95460.66
2022-10-30T05:49:57.359Z,95471.56
2022-10-30T05:50:55.858Z,95459.25
2022-10-30T05:51:52.601Z,95483.53
2022-10-30T05:52:49.338Z,95468.94
2022-10-30T05:53:49.092Z,95490.06
2022-10-30T05:54:45.791Z,95457.63
2022-10-30T05:55:42.561Z,95328.34
2022-10-30T05:56:39.382Z,95461.66
2022-10-30T05:57:36.053Z,95488.66
2022-10-30T05:58:32.803Z,95443.94
2022-10-30T05:59:29.485Z,95269.69
2022-10-30T06:00:31.770Z,95461.44
2022-10-30T06:01:28.528Z,95468.50
2022-10-30T06:02:25.424Z,95450.88
2022-10-30T06:03:22.288Z,95441.25
2022-10-30T06:04:18.978Z,95465.31
2022-10-30T06:05:15.800Z,95362.94
2022-10-30T06:06:12.686Z,95467.34
2022-10-30T06:07:10.815Z,95475.75
2022-10-30T06:08:08.205Z,95473.31
2022-10-30T06:09:04.896Z,95475.81
2022-10-30T06:10:01.610Z,95414.25
2022-10-30T06:10:58.314Z,95478.91
2022-10-30T06:11:55.105Z,95428.06
2022-10-30T06:13:01.194Z,95466.16
2022-10-30T06:13:58.428Z,95443.34
2022-10-30T06:14:55.112Z,95468.22
2022-10-30T06:15:55.995Z,95427.94
2022-10-30T06:16:52.678Z,95444.44
2022-10-30T06:17:49.502Z,95352.47
2022-10-30T06:18:46.326Z,95475.03
2022-10-30T06:19:43.024Z,95434.69
2022-10-30T06:20:39.709Z,95394.94
2022-10-30T06:21:36.408Z,95458.47
2022-10-30T06:22:33.068Z,95334.06
2022-10-30T06:23:29.756Z,95468.75
2022-10-30T06:24:26.456Z,95420.47
2022-10-30T06:25:24.074Z,95452.50
2022-10-30T06:26:20.777Z,95461.25
2022-10-30T06:27:17.468Z,95481.63
2022-10-30T06:28:14.860Z,95425.75
2022-10-30T06:29:12.017Z,95398.25
2022-10-30T06:30:08.961Z,95453.91
2022-10-30T06:31:06.198Z,95461.75
2022-10-30T06:32:06.492Z,95471.25
2022-10-30T06:33:05.531Z,95420.22
2022-10-30T06:34:02.269Z,95454.22
2022-10-30T06:34:58.968Z,95476.22
2022-10-30T06:35:55.640Z,95480.25
2022-10-30T06:36:52.410Z,95445.78
2022-10-30T06:37:49.724Z,95475.75
2022-10-30T06:38:46.469Z,95483.47
2022-10-30T06:39:43.193Z,95488.31
2022-10-30T06:40:39.935Z,95462.41
2022-10-30T06:41:36.613Z,95475.00
2022-10-30T06:42:33.343Z,95483.47
2022-10-30T06:43:30.160Z,95475.41
2022-10-30T06:44:26.848Z,95488.59
2022-10-30T06:45:24.982Z,95440.78
2022-10-30T06:46:22.158Z,95392.34
2022-10-30T06:47:19.416Z,95490.34
2022-10-30T06:48:16.166Z,95471.53
2022-10-30T06:49:12.847Z,95501.66
2022-10-30T06:50:12.579Z,95486.69
2022-10-30T06:51:09.517Z,95351.75
2022-10-30T06:52:06.213Z,95497.44
2022-10-30T06:53:03.049Z,95296.88
2022-10-30T06:53:59.712Z,95439.50
2022-10-30T06:54:56.369Z,95497.69
2022-10-30T06:56:03.712Z,95478.88
2022-10-30T06:57:00.740Z,95467.31
2022-10-30T06:57:58.087Z,95390.78
2022-10-30T06:58:55.076Z,95444.03
2022-10-30T06:59:52.369Z,95334.94
2022-10-30T07:01:46.895Z,95481.50
2022-10-30T07:02:43.669Z,95488.38
2022-10-30T07:03:40.394Z,95298.84
2022-10-30T07:04:37.131Z,95273.53
2022-10-30T07:05:33.808Z,95451.50
2022-10-30T07:06:30.633Z,95496.69
2022-10-30T07:07:27.365Z,95461.59
2022-10-30T07:08:24.638Z,95488.75
2022-10-30T07:09:21.315Z,95484.72
2022-10-30T07:10:18.467Z,95473.78
2022-10-30T07:11:15.227Z,95482.69
2022-10-30T07:12:12.525Z,95429.22
2022-10-30T07:13:09.702Z,95505.19
2022-10-30T07:14:06.425Z,95488.78
2022-10-30T07:15:03.409Z,95480.91
2022-10-30T07:16:00.183Z,95500.94
2022-10-30T07:16:57.229Z,95442.19
2022-10-30T07:17:58.951Z,95469.13
2022-10-30T07:18:58.220Z,95488.38
2022-10-30T07:19:57.302Z,95482.94
2022-10-30T07:20:58.240Z,95412.47
2022-10-30T07:21:54.986Z,95456.00
2022-10-30T07:22:52.060Z,95476.44
2022-10-30T07:23:48.795Z,95481.91
2022-10-30T07:24:45.499Z,95469.78
2022-10-30T07:25:42.213Z,95449.28
2022-10-30T07:26:39.447Z,95432.09
2022-10-30T07:27:43.502Z,95422.34
2022-10-30T07:28:40.220Z,95443.00
2022-10-30T07:29:36.890Z,95471.78
2022-10-30T07:30:33.578Z,95420.72
2022-10-30T07:31:42.382Z,95480.28
2022-10-30T07:32:39.572Z,95455.72
2022-10-30T07:33:36.261Z,95456.97
2022-10-30T07:34:32.959Z,95471.94
2022-10-30T07:35:31.395Z,95424.13
2022-10-30T07:36:28.168Z,95422.88
2022-10-30T07:37:24.854Z,95444.69
2022-10-30T07:38:21.551Z,95445.34
2022-10-30T07:39:18.321Z,95422.81
2022-10-30T07:40:15.067Z,95422.81
2022-10-30T07:41:11.744Z,95404.41
2022-10-30T07:42:08.416Z,95413.72
2022-10-30T07:43:05.880Z,95404.38
2022-10-30T07:44:02.755Z,95374.78
2022-10-30T07:44:59.519Z,95453.09
2022-10-30T07:45:56.770Z,95404.38
2022-10-30T07:46:53.491Z,95407.09
2022-10-30T07:47:50.204Z,95458.41
2022-10-30T07:48:46.969Z,95468.59
2022-10-30T07:49:43.674Z,95403.00
2022-10-30T07:50:40.403Z,95384.97
2022-10-30T07:51:37.111Z,95458.41
2022-10-30T07:52:34.245Z,95373.91
2022-10-30T07:53:31.077Z,95460.69
2022-10-30T07:54:27.797Z,95311.16
2022-10-30T07:55:24.450Z,95452.09
2022-10-30T07:56:21.128Z,95480.91
2022-10-30T07:57:17.901Z,95402.09
2022-10-30T07:58:14.630Z,95449.59
2022-10-30T07:59:11.408Z,95426.41
2022-10-30T08:00:11.243Z,95446.72
2022-10-30T08:01:08.025Z,95457.28
2022-10-30T08:02:04.890Z,95439.16
2022-10-30T08:03:02.250Z,95357.53
2022-10-30T08:03:59.218Z,95442.28
2022-10-30T08:04:55.913Z,95413.22
2022-10-30T08:05:52.563Z,95407.31
2022-10-30T08:06:49.262Z,95419.78
2022-10-30T08:07:47.926Z,95421.75
2022-10-30T08:08:44.615Z,95422.81
2022-10-30T08:09:41.357Z,95373.00
2022-10-30T08:10:38.225Z,95419.13
2022-10-30T08:11:35.001Z,95436.09
2022-10-30T08:12:34.294Z,95376.78
2022-10-30T08:13:30.973Z,95251.84
2022-10-30T08:14:27.680Z,95374.19
2022-10-30T08:15:25.132Z,95404.75
2022-10-30T08:16:21.966Z,95437.81
2022-10-30T08:17:18.723Z,95421.97
2022-10-30T08:18:15.400Z,95417.09
2022-10-30T08:19:12.125Z,95415.00
2022-10-30T08:20:09.596Z,95412.69
2022-10-30T08:21:06.285Z,95394.91
2022-10-30T08:22:03.003Z,95413.28
2022-10-30T08:22:59.910Z,95420.41
2022-10-30T08:23:56.783Z,95427.22
2022-10-30T08:24:53.443Z,95362.22
2022-10-30T08:25:50.221Z,95429.16
2022-10-30T08:26:46.905Z,95415.44
2022-10-30T08:27:55.443Z,95416.22
2022-10-30T08:28:52.144Z,95239.31
2022-10-30T08:29:48.835Z,95382.28
2022-10-30T08:30:45.591Z,95337.63
2022-10-30T08:31:42.282Z,95428.47
2022-10-30T08:32:39.027Z,95421.63
2022-10-30T08:33:35.778Z,95412.22
2022-10-30T08:34:34.361Z,95345.72
2022-10-30T08:35:32.543Z,95423.97
2022-10-30T08:36:29.289Z,95419.72
2022-10-30T08:37:25.991Z,95383.56
2022-10-30T08:38:23.397Z,95396.13
2022-10-30T08:39:20.705Z,95415.41
2022-10-30T08:40:17.389Z,95373.22
2022-10-30T08:41:14.109Z,95413.06
2022-10-30T08:42:10.821Z,95278.38
2022-10-30T08:43:08.651Z,95347.75
2022-10-30T08:44:05.455Z,95431.22
2022-10-30T08:45:02.149Z,95389.16
2022-10-30T08:45:58.857Z,95432.50
2022-10-30T08:46:55.564Z,95426.09
2022-10-30T08:48:00.896Z,95422.53
2022-10-30T08:48:58.070Z,95424.03
2022-10-30T08:49:54.901Z,95432.00
2022-10-30T08:50:51.672Z,95402.75
2022-10-30T08:51:48.388Z,95347.75
2022-10-30T08:52:45.205Z,95422.13
2022-10-30T08:53:42.656Z,95441.75
2022-10-30T08:54:39.374Z,95406.78
2022-10-30T08:55:36.346Z,95378.53
2022-10-30T08:56:33.044Z,95373.94
2022-10-30T08:57:36.352Z,95397.72
2022-10-30T08:58:33.013Z,95423.22
2022-10-30T08:59:29.696Z,95377.63
2022-10-30T09:00:27.467Z,95362.09
2022-10-30T09:01:24.337Z,95295.50
2022-10-30T09:02:21.112Z,95411.47
2022-10-30T09:03:17.898Z,95385.44
2022-10-30T09:04:14.601Z,95414.09
2022-10-30T09:05:11.589Z,95211.44
2022-10-30T09:06:08.410Z,95388.78
2022-10-30T09:07:07.557Z,95412.38
2022-10-30T09:08:07.113Z,95405.38
2022-10-30T09:09:03.870Z,95393.75
2022-10-30T09:10:01.825Z,95396.59
2022-10-30T09:10:59.275Z,95410.13
2022-10-30T09:11:56.013Z,95407.03
2022-10-30T09:12:57.138Z,95397.47
2022-10-30T09:13:53.908Z,95369.00
2022-10-30T09:14:50.609Z,95414.44
2022-10-30T09:15:47.312Z,95355.16
2022-10-30T09:16:44.033Z,95313.34
2022-10-30T09:17:40.736Z,95410.41
2022-10-30T09:18:37.410Z,95381.56
2022-10-30T09:19:34.176Z,95387.22
2022-10-30T09:20:31.601Z,95416.06
2022-10-30T09:21:28.290Z,95393.91
2022-10-30T09:22:25.001Z,95405.88
2022-10-30T09:23:21.959Z,95370.84
2022-10-30T09:24:18.705Z,95369.59
2022-10-30T09:25:15.459Z,95224.75
2022-10-30T09:26:16.789Z,95382.91
2022-10-30T09:27:15.297Z,95386.75
2022-10-30T09:28:12.082Z,95404.25
2022-10-30T09:29:08.777Z,95378.31
2022-10-30T09:30:06.356Z,95306.97
2022-10-30T09:31:03.632Z,95388.59
2022-10-30T09:32:00.542Z,95403.38
2022-10-30T09:33:04.977Z,95404.75
2022-10-30T09:34:01.901Z,95394.34
2022-10-30T09:34:58.558Z,95384.84
2022-10-30T09:35:55.352Z,95396.13
2022-10-30T09:36:52.059Z,95382.03
2022-10-30T09:37:48.833Z,95304.50
2022-10-30T09:38:45.642Z,95376.56
2022-10-30T09:39:42.406Z,95371.16
2022-10-30T09:40:57.843Z,95366.69
2022-10-30T09:42:37.640Z,95366.00
2022-10-30T09:43:51.090Z,95364.25
2022-10-30T09:45:23.388Z,95368.50
2022-10-30T09:46:41.425Z,95372.19
2022-10-30T09:47:46.998Z,95355.97
2022-10-30T09:48:55.745Z,95358.72
2022-10-30T09:50:20.196Z,95356.91
2022-10-30T09:51:36.762Z,95356.53
2022-10-30T09:52:58.290Z,95361.19
2022-10-30T09:54:20.029Z,95338.00
2022-10-30T09:55:51.461Z,95368.06
2022-10-30T09:56:59.408Z,95358.56
2022-10-30T09:58:06.674Z,95351.31
2022-10-30T09:59:25.169Z,95349.03
2022-10-30T10:00:30.983Z,95343.59
2022-10-30T10:01:42.906Z,95347.13
2022-10-30T10:02:42.811Z,95337.25
2022-10-30T10:04:04.212Z,95357.09
2022-10-30T10:05:12.788Z,95332.03
2022-10-30T10:06:18.816Z,95325.56
2022-10-30T10:07:23.227Z,95324.38
2022-10-30T10:08:45.249Z,95349.53
2022-10-30T10:09:44.758Z,95325.41
2022-10-30T10:10:50.887Z,95264.13
2022-10-30T10:11:58.868Z,95235.13
2022-10-30T10:13:01.136Z,95291.66
2022-10-30T10:14:09.517Z,95278.91
2022-10-30T10:15:21.878Z,95320.91
2022-10-30T10:16:28.493Z,95197.78
2022-10-30T10:17:34.908Z,95289.66
2022-10-30T10:19:16.383Z,95314.03
2022-10-30T10:20:37.387Z,95310.09
2022-10-30T10:21:44.821Z,95203.91
2022-10-30T10:22:49.953Z,95253.63
2022-10-30T10:23:53.104Z,95136.41
2022-10-30T10:24:50.661Z,95323.19
2022-10-30T10:25:53.990Z,95327.88
2022-10-30T10:27:00.028Z,95240.78
2022-10-30T10:28:06.822Z,95304.16
2022-10-30T10:29:21.955Z,95310.44
2022-10-30T10:30:23.137Z,95301.16
2022-10-30T10:31:38.867Z,95303.44
2022-10-30T10:33:18.705Z,95317.31
2022-10-30T10:34:33.934Z,95289.41
2022-10-30T10:35:30.585Z,95291.47
2022-10-30T10:36:39.132Z,95290.94
2022-10-30T10:38:02.301Z,95292.13
2022-10-30T10:39:19.941Z,95287.63
2022-10-30T10:40:28.384Z,95285.81
2022-10-30T10:42:06.577Z,95283.13
2022-10-30T10:43:41.995Z,95279.22
2022-10-30T10:45:22.286Z,95277.91
2022-10-30T10:46:34.023Z,95120.00
2022-10-30T10:47:52.423Z,95153.25
2022-10-30T10:49:21.278Z,95263.53
2022-10-30T10:50:31.634Z,95158.28
2022-10-30T10:51:37.783Z,95241.69
2022-10-30T10:52:47.673Z,95251.50
2022-10-30T10:53:44.392Z,95264.84
2022-10-30T10:54:46.565Z,95282.50
2022-10-30T10:55:49.945Z,95180.72
2022-10-30T10:56:51.392Z,95271.56
2022-10-30T10:57:48.573Z,95216.69
2022-10-30T10:59:03.959Z,95149.88
2022-10-30T11:00:14.190Z,95076.22
2022-10-30T11:01:20.328Z,95187.84
2022-10-30T11:02:35.764Z,95253.25
2022-10-30T11:03:52.740Z,95104.19
2022-10-30T11:04:55.446Z,95233.16
2022-10-30T11:06:23.964Z,95245.78
2022-10-30T11:07:36.772Z,95171.94
2022-10-30T11:08:35.441Z,95256.50
2022-10-30T11:09:32.128Z,95249.59
2022-10-30T11:10:28.801Z,95259.22
2022-10-30T11:11:25.538Z,95242.16
2022-10-30T11:12:41.254Z,95254.41
2022-10-30T11:13:41.401Z,95199.81
2022-10-30T11:14:38.126Z,95069.91
2022-10-30T11:15:46.973Z,95224.03
2022-10-30T11:16:46.404Z,95230.69
2022-10-30T11:17:54.918Z,95252.63
2022-10-30T11:18:58.315Z,95182.03
2022-10-30T11:20:02.935Z,95235.25
2022-10-30T11:21:18.925Z,95211.22
2022-10-30T11:22:29.786Z,95233.16
2022-10-30T11:23:35.564Z,95219.50
2022-10-30T11:24:34.884Z,95219.28
2022-10-30T11:25:36.577Z,95203.78
2022-10-30T11:26:34.628Z,95222.53
2022-10-30T11:27:31.617Z,95177.28
2022-10-30T11:28:48.694Z,95213.16
2022-10-30T11:29:58.615Z,95216.09
2022-10-30T11:31:30.260Z,95213.44
2022-10-30T11:32:30.713Z,95077.03
2022-10-30T11:33:30.585Z,95149.75
2022-10-30T11:34:45.276Z,95152.97
2022-10-30T11:35:42.550Z,95210.75
2022-10-30T11:36:39.212Z,95226.28
2022-10-30T11:37:38.212Z,95218.25
2022-10-30T11:38:34.928Z,95221.19
2022-10-30T11:39:34.934Z,95069.91
2022-10-30T11:40:31.621Z,95202.22
2022-10-30T11:41:28.350Z,95218.50
2022-10-30T11:42:25.641Z,95164.81
2022-10-30T11:43:25.613Z,95207.03
2022-10-30T11:44:29.208Z,95171.47
2022-10-30T11:45:31.104Z,95162.91
2022-10-30T11:46:28.136Z,95219.59
2022-10-30T11:48:34.274Z,95214.78
2022-10-30T11:49:52.332Z,95197.69
2022-10-30T11:50:52.213Z,95206.50
2022-10-30T11:51:49.391Z,95210.25